createdAt,value
2018-05-31T00:02:27.496Z,20.80
2018-05-31T00:05:01.126Z,20.80
2018-05-31T00:07:34.806Z,20.70
2018-05-31T00:10:08.466Z,20.80
2018-05-31T00:12:42.904Z,20.80
2018-05-31T00:15:16.665Z,20.80
2018-05-31T00:17:50.259Z,20.90
2018-05-31T00:20:24.052Z,20.90
2018-05-31T00:22:57.762Z,20.90
2018-05-31T00:25:31.540Z,20.90
2018-05-31T00:28:05.154Z,21.00
2018-05-31T00:30:38.781Z,21.00
2018-05-31T00:33:12.524Z,20.90
2018-05-31T00:35:46.100Z,20.90
2018-05-31T00:38:19.828Z,20.80
2018-05-31T00:40:55.058Z,20.70
2018-05-31T00:43:29.640Z,20.60
2018-05-31T00:46:04.270Z,20.60
2018-05-31T00:48:37.989Z,20.50
2018-05-31T00:51:11.916Z,20.60
2018-05-31T00:53:45.547Z,20.60
2018-05-31T00:56:19.344Z,20.60
2018-05-31T00:58:53.148Z,20.60
2018-05-31T01:01:26.881Z,20.60
2018-05-31T01:04:00.673Z,20.60
2018-05-31T01:06:34.398Z,20.60
2018-05-31T01:09:08.156Z,20.60
2018-05-31T01:11:41.868Z,20.50
2018-05-31T01:14:15.553Z,20.50
2018-05-31T01:16:49.275Z,20.50
2018-05-31T01:19:22.970Z,20.50
2018-05-31T01:21:56.675Z,20.50
2018-05-31T01:24:30.422Z,20.50
2018-05-31T01:27:04.148Z,20.40
2018-05-31T01:29:37.924Z,20.40
2018-05-31T01:32:11.584Z,20.20
2018-05-31T01:34:45.341Z,20.20
2018-05-31T01:37:19.293Z,20.20
2018-05-31T01:39:53.021Z,20.20
2018-05-31T01:42:27.497Z,20.20
2018-05-31T01:45:01.210Z,20.20
2018-05-31T01:47:34.859Z,20.20
2018-05-31T01:50:08.586Z,20.20
2018-05-31T01:52:42.373Z,20.20
2018-05-31T01:55:16.021Z,20.20
2018-05-31T01:57:49.748Z,20.10
2018-05-31T02:00:23.514Z,20.00
2018-05-31T02:02:57.121Z,20.00
2018-05-31T02:05:31.032Z,20.00
2018-05-31T02:08:06.301Z,19.80
2018-05-31T02:10:39.871Z,19.80
2018-05-31T02:13:13.556Z,19.70
2018-05-31T02:15:47.184Z,19.70
2018-05-31T02:18:20.947Z,19.70
2018-05-31T02:20:54.730Z,19.80
2018-05-31T02:23:28.430Z,19.70
2018-05-31T02:26:02.002Z,19.60
2018-05-31T02:28:36.397Z,19.50
2018-05-31T02:31:10.097Z,19.50
2018-05-31T02:33:43.747Z,19.60
2018-05-31T02:36:17.512Z,19.60
2018-05-31T02:38:52.036Z,19.60
2018-05-31T02:41:25.670Z,19.60
2018-05-31T02:43:59.308Z,19.50
2018-05-31T02:46:33.074Z,19.50
2018-05-31T02:49:06.735Z,19.50
2018-05-31T02:51:40.440Z,19.50
2018-05-31T02:54:14.254Z,19.50
2018-05-31T02:56:48.779Z,19.50
2018-05-31T02:59:23.301Z,19.40
2018-05-31T03:01:56.945Z,19.40
2018-05-31T03:04:30.668Z,19.30
2018-05-31T03:07:04.305Z,19.30
2018-05-31T03:09:38.051Z,19.20
2018-05-31T03:12:11.821Z,19.20
2018-05-31T03:14:45.527Z,19.10
2018-05-31T03:17:19.221Z,19.10
2018-05-31T03:19:53.856Z,19.20
2018-05-31T03:22:27.629Z,19.20
2018-05-31T03:25:01.370Z,19.20
2018-05-31T03:27:36.053Z,19.30
2018-05-31T03:30:10.486Z,19.20
2018-05-31T03:32:44.089Z,19.20
2018-05-31T03:35:17.817Z,19.20
2018-05-31T03:37:51.641Z,19.20
2018-05-31T03:40:26.064Z,19.30
2018-05-31T03:42:59.732Z,19.30
2018-05-31T03:45:33.488Z,19.40
2018-05-31T03:48:07.117Z,19.30
2018-05-31T03:50:40.743Z,19.20
2018-05-31T03:53:14.353Z,19.30
2018-05-31T03:55:47.975Z,19.40
2018-05-31T03:58:21.621Z,19.30
2018-05-31T04:00:55.233Z,19.30
2018-05-31T04:03:28.874Z,19.30
2018-05-31T04:06:02.537Z,19.30
2018-05-31T04:08:36.210Z,19.40
2018-05-31T04:11:10.589Z,19.40
2018-05-31T04:13:44.310Z,19.40
2018-05-31T04:16:18.081Z,19.50
2018-05-31T04:18:51.789Z,19.60
2018-05-31T04:21:26.708Z,19.60
2018-05-31T04:24:01.522Z,19.70
2018-05-31T04:26:35.773Z,19.70
2018-05-31T04:29:10.820Z,19.80
2018-05-31T04:31:45.613Z,19.80
2018-05-31T04:34:20.180Z,19.70
2018-05-31T04:36:54.750Z,19.60
2018-05-31T04:39:29.428Z,19.70
2018-05-31T04:42:03.225Z,19.70
2018-05-31T04:44:36.970Z,19.80
2018-05-31T04:47:10.675Z,19.90
2018-05-31T04:49:44.303Z,20.00
2018-05-31T04:52:17.969Z,20.10
2018-05-31T04:54:51.644Z,20.10
2018-05-31T04:57:25.207Z,20.10
2018-05-31T04:59:58.940Z,20.00
2018-05-31T05:02:32.720Z,20.30
2018-05-31T05:05:06.400Z,20.90
2018-05-31T05:07:40.145Z,21.60
2018-05-31T05:10:14.588Z,22.70
2018-05-31T05:12:48.207Z,22.70
2018-05-31T05:15:21.978Z,23.10
2018-05-31T05:17:56.496Z,22.70
2018-05-31T05:20:30.837Z,22.30
2018-05-31T05:23:04.581Z,22.20
2018-05-31T05:25:38.237Z,21.60
2018-05-31T05:28:11.931Z,20.90
2018-05-31T05:30:45.564Z,20.60
2018-05-31T05:33:19.316Z,20.50
2018-05-31T05:35:52.998Z,20.40
2018-05-31T05:38:27.175Z,20.50
2018-05-31T05:41:00.850Z,20.70
2018-05-31T05:43:34.644Z,20.90
2018-05-31T05:46:08.223Z,21.00
2018-05-31T05:48:41.900Z,21.10
2018-05-31T05:51:15.591Z,21.10
2018-05-31T05:53:50.003Z,20.90
2018-05-31T05:56:23.796Z,20.80
2018-05-31T05:58:58.331Z,21.00
2018-05-31T06:01:32.044Z,21.00
2018-05-31T06:04:05.795Z,21.20
2018-05-31T06:06:39.518Z,21.30
2018-05-31T06:09:13.285Z,21.50
2018-05-31T06:11:47.789Z,21.40
2018-05-31T06:14:21.455Z,21.40
2018-05-31T06:16:55.110Z,21.20
2018-05-31T06:19:28.867Z,21.10
2018-05-31T06:22:02.567Z,21.30
2018-05-31T06:24:36.240Z,21.50
2018-05-31T06:27:10.596Z,21.70
2018-05-31T06:29:44.360Z,21.70
2018-05-31T06:32:18.104Z,21.80
2018-05-31T06:34:51.859Z,21.60
2018-05-31T06:37:26.378Z,21.70
2018-05-31T06:40:00.056Z,21.70
2018-05-31T06:42:33.627Z,21.70
2018-05-31T06:45:08.091Z,22.00
2018-05-31T06:47:41.845Z,22.00
2018-05-31T06:50:15.512Z,22.00
2018-05-31T06:52:49.199Z,21.90
2018-05-31T06:55:26.167Z,21.90
2018-05-31T06:57:59.770Z,22.10
2018-05-31T07:00:33.467Z,22.20
2018-05-31T07:03:07.182Z,22.30
2018-05-31T07:05:40.875Z,22.40
2018-05-31T07:08:14.500Z,22.50
2018-05-31T07:10:48.136Z,22.50
2018-05-31T07:13:21.747Z,22.50
2018-05-31T07:15:55.422Z,22.30
2018-05-31T07:18:29.164Z,22.40
2018-05-31T07:21:02.896Z,22.50
2018-05-31T07:23:36.500Z,22.40
2018-05-31T07:26:10.237Z,22.50
2018-05-31T07:28:44.808Z,22.80
2018-05-31T07:31:18.447Z,22.70
2018-05-31T07:33:51.997Z,22.80
2018-05-31T07:36:25.772Z,22.70
2018-05-31T07:38:59.540Z,22.70
2018-05-31T07:41:33.831Z,23.00
2018-05-31T07:44:07.644Z,23.00
2018-05-31T07:46:41.455Z,23.10
2018-05-31T07:49:15.121Z,23.10
2018-05-31T07:51:48.888Z,23.10
2018-05-31T07:54:22.500Z,23.20
2018-05-31T07:56:56.272Z,23.20
2018-05-31T07:59:30.020Z,23.40
2018-05-31T08:02:04.438Z,23.40
2018-05-31T08:04:38.954Z,23.50
2018-05-31T08:07:12.671Z,23.50
2018-05-31T08:09:47.136Z,24.20
2018-05-31T08:12:20.780Z,24.20
2018-05-31T08:14:54.467Z,25.00
2018-05-31T08:17:28.997Z,25.60
2018-05-31T08:20:02.598Z,25.60
2018-05-31T08:22:36.376Z,26.40
2018-05-31T08:25:10.180Z,26.90
2018-05-31T08:27:43.731Z,27.10
2018-05-31T08:30:17.507Z,27.60
2018-05-31T08:32:51.218Z,27.60
2018-05-31T08:35:25.647Z,28.50
2018-05-31T08:37:59.336Z,28.50
2018-05-31T08:40:32.980Z,28.20
2018-05-31T08:43:06.609Z,28.40
2018-05-31T08:45:40.945Z,29.10
2018-05-31T08:48:14.736Z,29.00
2018-05-31T08:50:48.454Z,29.20
2018-05-31T08:53:22.256Z,29.20
2018-05-31T08:55:55.901Z,29.40
2018-05-31T08:58:29.690Z,29.50
2018-05-31T09:01:03.422Z,29.50
2018-05-31T09:03:37.174Z,29.70
2018-05-31T09:06:10.971Z,30.00
2018-05-31T09:08:44.680Z,30.40
2018-05-31T09:11:18.352Z,30.30
2018-05-31T09:13:52.019Z,30.70
2018-05-31T09:16:25.676Z,30.60
2018-05-31T09:19:00.273Z,31.10
2018-05-31T09:21:34.817Z,31.40
2018-05-31T09:24:08.394Z,31.40
2018-05-31T09:26:42.067Z,31.50
2018-05-31T09:29:15.774Z,31.50
2018-05-31T09:31:50.253Z,31.30
2018-05-31T09:34:24.023Z,31.30
2018-05-31T09:36:57.746Z,31.30
2018-05-31T09:39:31.460Z,31.70
2018-05-31T09:42:05.032Z,31.70
2018-05-31T09:44:39.487Z,31.20
2018-05-31T09:47:13.276Z,31.10
2018-05-31T09:49:46.988Z,31.60
2018-05-31T09:52:20.751Z,32.00
2018-05-31T09:54:54.431Z,32.00
2018-05-31T09:57:28.053Z,32.00
2018-05-31T10:00:02.461Z,32.40
2018-05-31T10:02:36.089Z,32.40
2018-05-31T10:05:09.688Z,31.60
2018-05-31T10:07:43.292Z,31.00
2018-05-31T10:10:16.873Z,30.20
2018-05-31T10:12:52.030Z,31.20
2018-05-31T10:15:25.810Z,31.20
2018-05-31T10:17:59.529Z,30.90
2018-05-31T10:20:33.219Z,30.90
2018-05-31T10:23:06.856Z,30.30
2018-05-31T10:25:41.339Z,31.30
2018-05-31T10:28:14.985Z,31.30
2018-05-31T10:30:48.761Z,31.50
2018-05-31T10:33:22.328Z,31.80
2018-05-31T10:35:55.965Z,31.50
2018-05-31T10:38:30.477Z,30.70
2018-05-31T10:41:04.311Z,30.70
2018-05-31T10:43:37.962Z,31.30
2018-05-31T10:46:11.577Z,31.10
2018-05-31T10:48:45.283Z,31.40
2018-05-31T10:51:18.911Z,30.80
2018-05-31T10:53:52.591Z,30.60
2018-05-31T10:56:26.218Z,30.90
2018-05-31T10:58:59.920Z,30.90
2018-05-31T11:01:33.696Z,31.20
2018-05-31T11:04:07.389Z,31.80
2018-05-31T11:06:41.828Z,31.90
2018-05-31T11:09:15.545Z,31.80
2018-05-31T11:11:49.141Z,32.30
2018-05-31T11:14:22.750Z,32.70
2018-05-31T11:16:57.256Z,32.00
2018-05-31T11:19:30.977Z,32.00
2018-05-31T11:22:04.568Z,31.60
2018-05-31T11:24:38.143Z,31.60
2018-05-31T11:27:11.801Z,32.00
2018-05-31T11:29:45.505Z,32.40
2018-05-31T11:32:19.265Z,32.40
2018-05-31T11:34:53.676Z,32.00
2018-05-31T11:37:27.326Z,31.90
2018-05-31T11:40:01.089Z,31.60
2018-05-31T11:42:35.360Z,31.50
2018-05-31T11:45:08.917Z,31.60
2018-05-31T11:47:43.259Z,31.60
2018-05-31T11:50:17.778Z,30.90
2018-05-31T11:52:51.426Z,30.90
2018-05-31T11:55:25.220Z,30.30
2018-05-31T11:57:58.914Z,29.90
2018-05-31T12:00:32.532Z,29.70
2018-05-31T12:03:06.314Z,29.70
2018-05-31T12:05:40.101Z,29.80
2018-05-31T12:08:13.884Z,30.10
2018-05-31T12:10:47.545Z,30.20
2018-05-31T12:13:21.896Z,29.50
2018-05-31T12:15:55.625Z,29.50
2018-05-31T12:18:29.255Z,29.30
2018-05-31T12:21:03.097Z,29.50
2018-05-31T12:23:36.828Z,29.90
2018-05-31T12:26:10.549Z,30.00
2018-05-31T12:28:45.178Z,30.30
2018-05-31T12:31:19.696Z,30.30
2018-05-31T12:33:54.190Z,30.40
2018-05-31T12:36:27.797Z,30.40
2018-05-31T12:39:01.538Z,30.30
2018-05-31T12:41:35.271Z,30.30
2018-05-31T12:44:09.137Z,30.20
2018-05-31T12:46:42.873Z,30.40
2018-05-31T12:49:16.684Z,30.60
2018-05-31T12:51:50.405Z,30.60
2018-05-31T12:54:24.091Z,30.50
2018-05-31T12:56:58.551Z,30.40
2018-05-31T12:59:32.903Z,30.20
2018-05-31T13:02:06.569Z,30.20
2018-05-31T13:04:40.917Z,30.20
2018-05-31T13:07:15.438Z,30.20
2018-05-31T13:09:49.868Z,30.30
2018-05-31T13:12:23.403Z,30.20
2018-05-31T13:14:56.977Z,30.30
2018-05-31T13:17:30.633Z,30.20
2018-05-31T13:20:04.443Z,30.30
2018-05-31T13:22:38.043Z,30.00
2018-05-31T13:25:12.508Z,29.90
2018-05-31T13:27:46.188Z,29.90
2018-05-31T13:30:20.835Z,29.90
2018-05-31T13:32:54.524Z,29.70
2018-05-31T13:35:28.212Z,29.40
2018-05-31T13:38:02.653Z,29.40
2018-05-31T13:40:36.361Z,29.40
2018-05-31T13:43:10.091Z,29.40
2018-05-31T13:45:43.795Z,29.20
2018-05-31T13:48:17.429Z,29.40
2018-05-31T13:50:51.195Z,28.90
2018-05-31T13:53:24.920Z,28.90
2018-05-31T13:55:58.535Z,28.80
2018-05-31T13:58:32.895Z,28.00
2018-05-31T14:01:06.605Z,28.00
2018-05-31T14:03:40.379Z,28.20
2018-05-31T14:06:14.021Z,28.30
2018-05-31T14:08:47.784Z,27.70
2018-05-31T14:11:21.488Z,27.60
2018-05-31T14:13:55.225Z,27.50
2018-05-31T14:16:28.950Z,27.50
2018-05-31T14:19:02.694Z,27.40
2018-05-31T14:21:37.260Z,27.20
2018-05-31T14:24:10.924Z,27.20
2018-05-31T14:26:44.685Z,27.40
2018-05-31T14:29:18.429Z,27.60
2018-05-31T14:31:52.193Z,27.90
2018-05-31T14:34:25.971Z,27.90
2018-05-31T14:36:59.747Z,27.70
2018-05-31T14:39:33.450Z,27.70
2018-05-31T14:42:07.187Z,27.80
2018-05-31T14:44:40.852Z,27.90
2018-05-31T14:47:15.388Z,27.70
2018-05-31T14:49:49.076Z,27.50
2018-05-31T14:52:23.547Z,27.20
2018-05-31T14:54:57.279Z,27.10
2018-05-31T14:57:31.041Z,27.10
2018-05-31T15:00:04.690Z,27.00
2018-05-31T15:02:38.450Z,27.10
2018-05-31T15:05:12.198Z,27.20
2018-05-31T15:20:46.534Z,27.10
2018-05-31T15:23:20.376Z,27.30
2018-05-31T15:25:54.165Z,27.50
2018-05-31T15:28:28.484Z,27.30
2018-05-31T15:31:02.341Z,27.30
2018-05-31T15:33:36.911Z,26.80
2018-05-31T15:36:10.600Z,26.80
2018-05-31T15:38:44.429Z,27.00
2018-05-31T15:41:18.916Z,27.10
2018-05-31T15:43:52.663Z,27.00
2018-05-31T15:46:26.357Z,26.90
2018-05-31T15:49:00.968Z,26.60
2018-05-31T15:51:34.762Z,26.60
2018-05-31T15:54:08.475Z,26.70
2018-05-31T15:56:42.333Z,26.80
2018-05-31T15:59:16.052Z,27.00
2018-05-31T16:01:49.893Z,27.00
2018-05-31T16:04:23.666Z,27.10
2018-05-31T16:06:58.256Z,27.30
2018-05-31T16:09:31.963Z,27.20
2018-05-31T16:12:05.782Z,27.10
2018-05-31T16:14:39.517Z,27.00
2018-05-31T16:17:13.412Z,26.90
2018-05-31T16:19:47.197Z,26.90
2018-05-31T16:22:20.991Z,27.00
2018-05-31T16:24:54.794Z,27.10
2018-05-31T16:27:28.528Z,26.80
2018-05-31T16:30:03.105Z,26.80
2018-05-31T16:32:36.796Z,26.80
2018-05-31T16:35:10.635Z,26.80
2018-05-31T16:37:44.471Z,26.80
2018-05-31T16:40:18.282Z,26.80
2018-05-31T16:42:52.808Z,26.90
2018-05-31T16:45:26.624Z,26.90
2018-05-31T16:48:01.146Z,26.90
2018-05-31T16:50:34.740Z,26.90
2018-05-31T16:53:08.541Z,26.80
2018-05-31T16:55:42.343Z,26.90
2018-05-31T16:58:16.929Z,26.80
2018-05-31T17:00:50.534Z,26.70
2018-05-31T17:03:24.387Z,26.80
2018-05-31T17:05:58.263Z,26.90
2018-05-31T17:08:31.965Z,27.00
2018-05-31T17:11:05.777Z,27.10
2018-05-31T17:13:39.408Z,27.20
2018-05-31T17:16:13.050Z,27.10
2018-05-31T17:18:46.796Z,27.00
2018-05-31T17:21:20.586Z,27.00
2018-05-31T17:23:54.467Z,26.90
2018-05-31T17:26:29.012Z,26.90
2018-05-31T17:29:02.755Z,26.80
2018-05-31T17:31:36.582Z,26.90
2018-05-31T17:34:10.929Z,26.90
2018-05-31T17:36:44.648Z,26.90
2018-05-31T17:39:18.443Z,26.90
2018-05-31T17:41:52.960Z,26.70
2018-05-31T17:44:26.716Z,26.70
2018-05-31T17:47:00.449Z,26.70
2018-05-31T17:49:34.277Z,26.70
2018-05-31T17:52:07.912Z,26.70
2018-05-31T17:54:42.525Z,26.60
2018-05-31T17:57:16.165Z,26.60
2018-05-31T17:59:50.107Z,26.50
2018-05-31T18:02:24.624Z,26.50
2018-05-31T18:04:58.467Z,26.40
2018-05-31T18:07:32.976Z,26.50
2018-05-31T18:10:06.818Z,26.50
2018-05-31T18:12:40.555Z,26.50
2018-05-31T18:15:14.292Z,26.50
2018-05-31T18:17:48.913Z,26.20
2018-05-31T18:20:22.651Z,26.20
2018-05-31T18:22:57.209Z,26.10
2018-05-31T18:25:31.047Z,26.10
2018-05-31T18:28:04.829Z,26.10
2018-05-31T18:30:38.657Z,26.20
2018-05-31T18:33:13.244Z,26.00
2018-05-31T18:35:47.077Z,26.00
2018-05-31T18:38:21.627Z,25.80
2018-05-31T18:40:55.453Z,25.80
2018-05-31T18:43:30.121Z,25.80
2018-05-31T18:46:03.931Z,25.80
2018-05-31T18:48:37.736Z,25.80
2018-05-31T18:51:11.515Z,25.80
2018-05-31T18:53:45.355Z,25.70
2018-05-31T18:56:20.030Z,25.50
2018-05-31T18:58:53.889Z,25.50
2018-05-31T19:01:27.666Z,25.50
2018-05-31T19:04:02.067Z,25.50
2018-05-31T19:06:35.823Z,25.50
2018-05-31T19:09:15.472Z,25.50
2018-05-31T19:11:49.984Z,25.50
2018-05-31T19:14:24.548Z,25.50
2018-05-31T19:16:59.056Z,25.40
2018-05-31T19:19:38.692Z,25.40
2018-05-31T19:22:12.459Z,25.40
2018-05-31T19:24:52.778Z,25.40
2018-05-31T19:27:26.768Z,25.40
2018-05-31T19:30:06.383Z,25.40
2018-05-31T19:32:40.159Z,25.40
2018-05-31T19:35:19.797Z,25.30
2018-05-31T19:37:53.624Z,25.30
2018-05-31T19:40:28.274Z,25.20
2018-05-31T19:43:07.820Z,25.20
2018-05-31T19:45:41.472Z,25.10
2018-05-31T19:48:16.082Z,25.10
2018-05-31T19:50:49.758Z,25.00
2018-05-31T19:53:29.218Z,25.00
2018-05-31T19:56:03.064Z,25.00
2018-05-31T19:58:43.351Z,25.00
2018-05-31T20:01:22.842Z,25.00
2018-05-31T20:03:56.713Z,25.00
2018-05-31T20:06:30.487Z,25.00
2018-05-31T20:09:04.240Z,25.00
2018-05-31T20:11:37.907Z,25.00
2018-05-31T20:14:11.732Z,25.10
2018-05-31T20:16:45.571Z,25.10
2018-05-31T20:19:20.054Z,25.00
2018-05-31T20:21:53.832Z,25.00
2018-05-31T20:24:27.656Z,24.90
2018-05-31T20:27:02.170Z,24.90
2018-05-31T20:29:36.001Z,24.90
2018-05-31T20:32:09.784Z,24.90
2018-05-31T20:34:43.489Z,24.90
2018-05-31T20:37:17.282Z,24.80
2018-05-31T20:39:51.104Z,24.70
2018-05-31T20:42:24.862Z,24.70
2018-05-31T20:44:58.789Z,24.80
2018-05-31T20:47:32.476Z,24.80
2018-05-31T20:50:06.248Z,24.70
2018-05-31T20:52:40.623Z,24.60
2018-05-31T20:55:14.977Z,24.60
2018-05-31T20:57:48.746Z,24.50
2018-05-31T21:00:22.509Z,24.50
2018-05-31T21:02:56.176Z,24.50
2018-05-31T21:05:30.063Z,24.50
2018-05-31T21:08:04.608Z,24.60
2018-05-31T21:10:38.410Z,24.60
2018-05-31T21:13:12.060Z,24.70
2018-05-31T21:15:45.839Z,24.70
2018-05-31T21:18:19.603Z,24.70
2018-05-31T21:20:53.476Z,24.60
2018-05-31T21:23:27.264Z,24.60
2018-05-31T21:26:00.932Z,24.60
2018-05-31T21:28:34.668Z,24.60
2018-05-31T21:31:09.216Z,24.60
2018-05-31T21:33:42.864Z,24.60
2018-05-31T21:36:16.775Z,24.60
2018-05-31T21:38:51.292Z,24.40
2018-05-31T21:41:24.921Z,24.30
2018-05-31T21:43:58.594Z,24.30
2018-05-31T21:46:32.226Z,24.30
2018-05-31T21:49:05.855Z,24.10
2018-05-31T21:51:40.408Z,23.90
2018-05-31T21:54:14.121Z,23.80
2018-05-31T21:56:47.852Z,23.80
2018-05-31T21:59:21.467Z,23.70
2018-05-31T22:01:55.948Z,23.50
2018-05-31T22:04:29.728Z,23.50
2018-05-31T22:07:04.282Z,23.40
2018-05-31T22:09:38.821Z,23.40
2018-05-31T22:12:12.684Z,23.30
2018-05-31T22:14:47.204Z,20.10
2018-05-31T22:17:20.870Z,20.00
2018-05-31T22:19:55.565Z,18.10
2018-05-31T22:22:29.214Z,18.00
2018-05-31T22:25:03.008Z,17.60
2018-05-31T22:27:37.407Z,17.30
2018-05-31T22:30:11.948Z,17.50
2018-05-31T22:32:45.644Z,17.50
2018-05-31T22:35:19.373Z,17.60
2018-05-31T22:37:53.105Z,17.60
2018-05-31T22:40:27.050Z,17.60
2018-05-31T22:43:00.749Z,17.40
2018-05-31T22:45:34.584Z,17.40
2018-05-31T22:48:08.272Z,17.40
2018-05-31T22:50:42.076Z,17.40
2018-05-31T22:53:15.739Z,17.30
2018-05-31T22:55:49.352Z,17.40
2018-05-31T22:58:23.244Z,17.30
2018-05-31T23:00:57.800Z,17.10
2018-05-31T23:03:31.621Z,17.10
2018-05-31T23:06:05.434Z,17.20
2018-05-31T23:08:42.677Z,17.30
2018-05-31T23:11:17.310Z,17.40
2018-05-31T23:13:51.132Z,17.40
2018-05-31T23:16:24.851Z,17.60
2018-05-31T23:18:58.648Z,17.50
2018-05-31T23:21:32.413Z,17.50
2018-05-31T23:24:06.208Z,17.50
2018-05-31T23:26:40.754Z,17.60
2018-05-31T23:29:15.375Z,17.60
2018-05-31T23:31:50.884Z,17.70
2018-05-31T23:34:25.013Z,17.70
2018-05-31T23:36:59.448Z,17.80
2018-05-31T23:39:33.929Z,17.80
2018-05-31T23:42:09.243Z,17.90
2018-05-31T23:44:44.080Z,17.90
2018-05-31T23:47:18.208Z,17.90
2018-05-31T23:49:52.779Z,17.80
2018-05-31T23:52:27.038Z,17.80
2018-05-31T23:55:01.164Z,17.80
2018-05-31T23:57:35.201Z,17.80
